sensor_id;sensor_type;location;lat;lon;timestamp;temperature;humidity
3067;DHT22;1544;48.834;9.194;2023-04-03T00:00:27;6.30;33.30
3067;DHT22;1544;48.834;9.194;2023-04-03T00:03:02;6.30;33.30
3067;DHT22;1544;48.834;9.194;2023-04-03T00:05:37;6.30;33.30
3067;DHT22;1544;48.834;9.194;2023-04-03T00:08:12;6.20;33.20
3067;DHT22;1544;48.834;9.194;2023-04-03T00:10:46;6.20;33.30
3067;DHT22;1544;48.834;9.194;2023-04-03T00:13:22;6.30;33.50
3067;DHT22;1544;48.834;9.194;2023-04-03T00:15:57;6.20;33.30
3067;DHT22;1544;48.834;9.194;2023-04-03T00:18:32;6.20;33.40
3067;DHT22;1544;48.834;9.194;2023-04-03T00:21:09;6.20;33.30
3067;DHT22;1544;48.834;9.194;2023-04-03T00:23:44;6.20;33.30
3067;DHT22;1544;48.834;9.194;2023-04-03T00:26:19;6.20;33.40
3067;DHT22;1544;48.834;9.194;2023-04-03T00:28:55;6.20;33.50
3067;DHT22;1544;48.834;9.194;2023-04-03T00:31:30;6.20;33.50
3067;DHT22;1544;48.834;9.194;2023-04-03T00:34:05;6.20;33.60
3067;DHT22;1544;48.834;9.194;2023-04-03T00:36:40;6.20;33.60
3067;DHT22;1544;48.834;9.194;2023-04-03T00:39:15;6.20;33.40
3067;DHT22;1544;48.834;9.194;2023-04-03T00:41:50;6.20;33.50
3067;DHT22;1544;48.834;9.194;2023-04-03T00:47:16;6.10;33.50
3067;DHT22;1544;48.834;9.194;2023-04-03T00:49:52;6.10;33.60
3067;DHT22;1544;48.834;9.194;2023-04-03T00:52:29;6.10;33.60
3067;DHT22;1544;48.834;9.194;2023-04-03T00:55:07;6.10;33.70
3067;DHT22;1544;48.834;9.194;2023-04-03T00:57:44;6.10;33.70
3067;DHT22;1544;48.834;9.194;2023-04-03T01:00:20;6.10;33.80
3067;DHT22;1544;48.834;9.194;2023-04-03T01:02:57;6.00;33.80
3067;DHT22;1544;48.834;9.194;2023-04-03T01:05:32;6.10;33.90
3067;DHT22;1544;48.834;9.194;2023-04-03T01:08:07;6.10;33.90
3067;DHT22;1544;48.834;9.194;2023-04-03T01:10:42;6.00;33.80
3067;DHT22;1544;48.834;9.194;2023-04-03T01:13:28;6.00;33.90
3067;DHT22;1544;48.834;9.194;2023-04-03T01:16:05;6.00;33.90
3067;DHT22;1544;48.834;9.194;2023-04-03T01:18:42;6.00;34.10
3067;DHT22;1544;48.834;9.194;2023-04-03T01:24:36;5.90;34.10
3067;DHT22;1544;48.834;9.194;2023-04-03T01:27:16;5.90;34.10
3067;DHT22;1544;48.834;9.194;2023-04-03T01:29:51;5.90;34.20
3067;DHT22;1544;48.834;9.194;2023-04-03T01:32:26;5.90;34.30
3067;DHT22;1544;48.834;9.194;2023-04-03T01:35:01;5.80;34.40
3067;DHT22;1544;48.834;9.194;2023-04-03T01:37:36;5.80;34.40
3067;DHT22;1544;48.834;9.194;2023-04-03T01:40:11;5.80;34.40
3067;DHT22;1544;48.834;9.194;2023-04-03T01:42:46;5.80;34.50
3067;DHT22;1544;48.834;9.194;2023-04-03T01:45:21;5.80;34.50
3067;DHT22;1544;48.834;9.194;2023-04-03T01:47:56;5.70;34.40
3067;DHT22;1544;48.834;9.194;2023-04-03T01:50:32;5.70;34.20
3067;DHT22;1544;48.834;9.194;2023-04-03T01:53:08;5.70;34.20
3067;DHT22;1544;48.834;9.194;2023-04-03T01:55:43;5.70;34.10
3067;DHT22;1544;48.834;9.194;2023-04-03T01:58:18;5.70;34.10
3067;DHT22;1544;48.834;9.194;2023-04-03T02:00:55;5.70;34.20
3067;DHT22;1544;48.834;9.194;2023-04-03T02:03:30;5.70;34.30
3067;DHT22;1544;48.834;9.194;2023-04-03T02:06:05;5.70;34.00
3067;DHT22;1544;48.834;9.194;2023-04-03T02:08:40;5.60;33.90
3067;DHT22;1544;48.834;9.194;2023-04-03T02:11:16;5.70;34.00
3067;DHT22;1544;48.834;9.194;2023-04-03T02:13:51;5.70;33.80
3067;DHT22;1544;48.834;9.194;2023-04-03T02:16:26;5.60;33.80
3067;DHT22;1544;48.834;9.194;2023-04-03T02:19:01;5.60;33.80
3067;DHT22;1544;48.834;9.194;2023-04-03T02:21:37;5.60;33.90
3067;DHT22;1544;48.834;9.194;2023-04-03T02:24:12;5.70;34.00
3067;DHT22;1544;48.834;9.194;2023-04-03T02:26:47;5.70;33.90
3067;DHT22;1544;48.834;9.194;2023-04-03T02:29:22;4.50;32.80
3067;DHT22;1544;48.834;9.194;2023-04-03T02:31:58;7.70;35.20
3067;DHT22;1544;48.834;9.194;2023-04-03T02:34:33;5.70;33.60
3067;DHT22;1544;48.834;9.194;2023-04-03T02:37:09;5.70;33.50
3067;DHT22;1544;48.834;9.194;2023-04-03T02:39:45;5.70;33.50
3067;DHT22;1544;48.834;9.194;2023-04-03T02:42:20;5.70;33.30
3067;DHT22;1544;48.834;9.194;2023-04-03T02:44:55;5.70;33.10
3067;DHT22;1544;48.834;9.194;2023-04-03T02:47:33;5.70;32.90
3067;DHT22;1544;48.834;9.194;2023-04-03T02:50:08;5.70;32.50
3067;DHT22;1544;48.834;9.194;2023-04-03T02:52:43;5.70;32.60
3067;DHT22;1544;48.834;9.194;2023-04-03T02:55:18;5.70;32.60
3067;DHT22;1544;48.834;9.194;2023-04-03T02:57:56;5.70;32.30
3067;DHT22;1544;48.834;9.194;2023-04-03T03:00:31;5.70;32.00
3067;DHT22;1544;48.834;9.194;2023-04-03T03:03:06;5.70;31.90
3067;DHT22;1544;48.834;9.194;2023-04-03T03:05:41;3.80;30.50
3067;DHT22;1544;48.834;9.194;2023-04-03T03:08:16;5.70;32.00
3067;DHT22;1544;48.834;9.194;2023-04-03T03:10:54;5.70;31.90
3067;DHT22;1544;48.834;9.194;2023-04-03T03:13:30;5.60;31.80
3067;DHT22;1544;48.834;9.194;2023-04-03T03:16:05;5.70;31.80
3067;DHT22;1544;48.834;9.194;2023-04-03T03:18:41;5.60;31.60
3067;DHT22;1544;48.834;9.194;2023-04-03T03:21:16;5.60;31.60
3067;DHT22;1544;48.834;9.194;2023-04-03T03:23:51;5.70;31.80
3067;DHT22;1544;48.834;9.194;2023-04-03T03:26:26;5.70;31.80
3067;DHT22;1544;48.834;9.194;2023-04-03T03:29:02;5.70;32.00
3067;DHT22;1544;48.834;9.194;2023-04-03T03:31:37;5.70;31.80
3067;DHT22;1544;48.834;9.194;2023-04-03T03:34:12;5.70;31.80
3067;DHT22;1544;48.834;9.194;2023-04-03T03:36:47;5.70;31.80
3067;DHT22;1544;48.834;9.194;2023-04-03T03:39:22;5.80;32.00
3067;DHT22;1544;48.834;9.194;2023-04-03T03:41:57;5.80;31.90
3067;DHT22;1544;48.834;9.194;2023-04-03T03:44:32;5.80;31.90
3067;DHT22;1544;48.834;9.194;2023-04-03T03:47:07;5.80;31.80
3067;DHT22;1544;48.834;9.194;2023-04-03T03:49:44;5.80;31.80
3067;DHT22;1544;48.834;9.194;2023-04-03T03:52:19;5.80;31.80
3067;DHT22;1544;48.834;9.194;2023-04-03T03:54:54;5.80;31.80
3067;DHT22;1544;48.834;9.194;2023-04-03T03:57:30;5.80;31.80
3067;DHT22;1544;48.834;9.194;2023-04-03T04:00:06;5.80;32.00
3067;DHT22;1544;48.834;9.194;2023-04-03T04:02:49;5.80;32.10
3067;DHT22;1544;48.834;9.194;2023-04-03T04:05:27;5.80;32.10
3067;DHT22;1544;48.834;9.194;2023-04-03T04:08:02;5.80;31.80
3067;DHT22;1544;48.834;9.194;2023-04-03T04:10:37;5.80;31.50
3067;DHT22;1544;48.834;9.194;2023-04-03T04:13:14;5.80;31.10
3067;DHT22;1544;48.834;9.194;2023-04-03T04:15:49;5.70;30.70
3067;DHT22;1544;48.834;9.194;2023-04-03T04:18:24;5.70;30.70
3067;DHT22;1544;48.834;9.194;2023-04-03T04:20:59;5.70;30.80
3067;DHT22;1544;48.834;9.194;2023-04-03T04:23:35;5.80;30.90
3067;DHT22;1544;48.834;9.194;2023-04-03T04:26:11;5.80;30.90
3067;DHT22;1544;48.834;9.194;2023-04-03T04:28:47;5.80;30.90
3067;DHT22;1544;48.834;9.194;2023-04-03T04:31:24;5.80;30.80
3067;DHT22;1544;48.834;9.194;2023-04-03T04:33:59;5.80;30.80
3067;DHT22;1544;48.834;9.194;2023-04-03T04:36:34;5.80;30.70
3067;DHT22;1544;48.834;9.194;2023-04-03T04:39:10;5.80;30.70
3067;DHT22;1544;48.834;9.194;2023-04-03T04:41:45;5.80;30.70
3067;DHT22;1544;48.834;9.194;2023-04-03T04:44:20;5.80;30.60
3067;DHT22;1544;48.834;9.194;2023-04-03T04:46:55;5.80;30.60
3067;DHT22;1544;48.834;9.194;2023-04-03T04:49:30;5.80;30.50
3067;DHT22;1544;48.834;9.194;2023-04-03T04:52:05;5.80;30.10
3067;DHT22;1544;48.834;9.194;2023-04-03T04:54:41;5.80;30.00
3067;DHT22;1544;48.834;9.194;2023-04-03T04:57:17;5.80;29.90
3067;DHT22;1544;48.834;9.194;2023-04-03T04:59:53;5.80;29.80
3067;DHT22;1544;48.834;9.194;2023-04-03T05:02:28;5.80;29.80
3067;DHT22;1544;48.834;9.194;2023-04-03T05:05:04;5.80;30.00
3067;DHT22;1544;48.834;9.194;2023-04-03T05:07:40;5.80;30.00
3067;DHT22;1544;48.834;9.194;2023-04-03T05:10:16;5.80;29.90
3067;DHT22;1544;48.834;9.194;2023-04-03T05:12:52;5.80;30.00
3067;DHT22;1544;48.834;9.194;2023-04-03T05:15:27;5.90;30.10
3067;DHT22;1544;48.834;9.194;2023-04-03T05:18:02;5.80;30.00
3067;DHT22;1544;48.834;9.194;2023-04-03T05:20:37;5.80;30.20
3067;DHT22;1544;48.834;9.194;2023-04-03T05:23:12;5.80;30.40
3067;DHT22;1544;48.834;9.194;2023-04-03T05:25:47;5.80;30.50
3067;DHT22;1544;48.834;9.194;2023-04-03T05:28:24;5.80;30.50
3067;DHT22;1544;48.834;9.194;2023-04-03T05:31:00;5.80;30.60
3067;DHT22;1544;48.834;9.194;2023-04-03T05:33:41;5.80;30.70
3067;DHT22;1544;48.834;9.194;2023-04-03T05:36:22;5.80;30.70
3067;DHT22;1544;48.834;9.194;2023-04-03T05:39:02;5.70;30.60
3067;DHT22;1544;48.834;9.194;2023-04-03T05:41:40;5.70;30.90
3067;DHT22;1544;48.834;9.194;2023-04-03T05:44:15;5.80;30.70
3067;DHT22;1544;48.834;9.194;2023-04-03T05:46:52;5.80;30.70
3067;DHT22;1544;48.834;9.194;2023-04-03T05:49:27;5.80;30.80
3067;DHT22;1544;48.834;9.194;2023-04-03T05:52:02;5.80;30.70
3067;DHT22;1544;48.834;9.194;2023-04-03T05:54:39;5.80;30.60
3067;DHT22;1544;48.834;9.194;2023-04-03T05:57:24;5.80;30.40
3067;DHT22;1544;48.834;9.194;2023-04-03T05:59:59;6.00;30.70
3067;DHT22;1544;48.834;9.194;2023-04-03T06:02:34;6.00;30.70
3067;DHT22;1544;48.834;9.194;2023-04-03T06:05:10;6.10;30.80
3067;DHT22;1544;48.834;9.194;2023-04-03T06:07:48;6.10;30.70
3067;DHT22;1544;48.834;9.194;2023-04-03T06:10:24;6.20;30.80
3067;DHT22;1544;48.834;9.194;2023-04-03T06:12:59;6.20;30.60
3067;DHT22;1544;48.834;9.194;2023-04-03T06:15:34;6.30;30.60
3067;DHT22;1544;48.834;9.194;2023-04-03T06:18:09;6.30;30.50
3067;DHT22;1544;48.834;9.194;2023-04-03T06:20:45;6.40;30.50
3067;DHT22;1544;48.834;9.194;2023-04-03T06:23:20;6.40;30.50
3067;DHT22;1544;48.834;9.194;2023-04-03T06:25:55;6.50;30.30
3067;DHT22;1544;48.834;9.194;2023-04-03T06:28:30;6.60;30.20
3067;DHT22;1544;48.834;9.194;2023-04-03T06:31:05;6.60;30.10
3067;DHT22;1544;48.834;9.194;2023-04-03T06:33:40;6.60;30.10
3067;DHT22;1544;48.834;9.194;2023-04-03T06:36:15;6.60;30.10
3067;DHT22;1544;48.834;9.194;2023-04-03T06:38:54;6.60;30.00
3067;DHT22;1544;48.834;9.194;2023-04-03T06:41:30;6.70;30.10
3067;DHT22;1544;48.834;9.194;2023-04-03T06:44:05;6.70;29.60
3067;DHT22;1544;48.834;9.194;2023-04-03T06:46:40;6.70;29.90
3067;DHT22;1544;48.834;9.194;2023-04-03T06:49:14;6.70;29.70
3067;DHT22;1544;48.834;9.194;2023-04-03T06:51:50;6.80;29.90
3067;DHT22;1544;48.834;9.194;2023-04-03T06:54:25;6.80;30.00
3067;DHT22;1544;48.834;9.194;2023-04-03T06:56:59;6.90;30.00
3067;DHT22;1544;48.834;9.194;2023-04-03T06:59:35;7.00;30.00
3067;DHT22;1544;48.834;9.194;2023-04-03T07:02:11;7.00;29.90
3067;DHT22;1544;48.834;9.194;2023-04-03T07:04:47;7.10;29.90
3067;DHT22;1544;48.834;9.194;2023-04-03T07:07:22;7.10;29.90
3067;DHT22;1544;48.834;9.194;2023-04-03T07:09:57;7.20;30.00
3067;DHT22;1544;48.834;9.194;2023-04-03T07:12:32;7.30;30.00
3067;DHT22;1544;48.834;9.194;2023-04-03T07:15:08;7.40;30.00
3067;DHT22;1544;48.834;9.194;2023-04-03T07:17:43;7.40;29.80
3067;DHT22;1544;48.834;9.194;2023-04-03T07:20:18;7.50;29.70
3067;DHT22;1544;48.834;9.194;2023-04-03T07:22:53;7.40;29.50
3067;DHT22;1544;48.834;9.194;2023-04-03T07:25:28;7.50;29.70
3067;DHT22;1544;48.834;9.194;2023-04-03T07:28:03;7.70;29.80
3067;DHT22;1544;48.834;9.194;2023-04-03T07:30:46;7.70;29.70
3067;DHT22;1544;48.834;9.194;2023-04-03T07:33:23;7.70;29.60
3067;DHT22;1544;48.834;9.194;2023-04-03T07:35:58;7.70;29.70
3067;DHT22;1544;48.834;9.194;2023-04-03T07:38:35;7.80;29.70
3067;DHT22;1544;48.834;9.194;2023-04-03T07:41:14;7.80;29.70
3067;DHT22;1544;48.834;9.194;2023-04-03T07:43:52;7.90;29.70
3067;DHT22;1544;48.834;9.194;2023-04-03T07:46:27;7.80;29.60
3067;DHT22;1544;48.834;9.194;2023-04-03T07:49:02;7.80;29.70
3067;DHT22;1544;48.834;9.194;2023-04-03T07:51:37;7.80;29.80
3067;DHT22;1544;48.834;9.194;2023-04-03T07:54:12;7.80;29.80
3067;DHT22;1544;48.834;9.194;2023-04-03T07:56:48;7.90;30.00
3067;DHT22;1544;48.834;9.194;2023-04-03T07:59:23;8.00;29.80
3067;DHT22;1544;48.834;9.194;2023-04-03T08:01:58;8.00;29.60
3067;DHT22;1544;48.834;9.194;2023-04-03T08:04:33;8.10;29.60
3067;DHT22;1544;48.834;9.194;2023-04-03T08:07:09;8.10;29.70
3067;DHT22;1544;48.834;9.194;2023-04-03T08:09:44;8.20;29.70
3067;DHT22;1544;48.834;9.194;2023-04-03T08:12:19;8.30;29.70
3067;DHT22;1544;48.834;9.194;2023-04-03T08:14:54;8.30;29.80
3067;DHT22;1544;48.834;9.194;2023-04-03T08:17:30;8.30;29.70
3067;DHT22;1544;48.834;9.194;2023-04-03T08:20:07;8.30;29.50
3067;DHT22;1544;48.834;9.194;2023-04-03T08:22:42;8.30;29.60
3067;DHT22;1544;48.834;9.194;2023-04-03T08:25:17;8.30;29.50
3067;DHT22;1544;48.834;9.194;2023-04-03T08:27:52;8.30;29.50
3067;DHT22;1544;48.834;9.194;2023-04-03T08:30:27;8.40;29.40
3067;DHT22;1544;48.834;9.194;2023-04-03T08:33:03;8.50;29.50
3067;DHT22;1544;48.834;9.194;2023-04-03T08:35:42;8.70;29.50
3067;DHT22;1544;48.834;9.194;2023-04-03T08:38:17;8.90;29.40
3067;DHT22;1544;48.834;9.194;2023-04-03T08:41:14;9.00;29.40
3067;DHT22;1544;48.834;9.194;2023-04-03T08:50:00;9.50;29.30
3067;DHT22;1544;48.834;9.194;2023-04-03T08:52:50;9.60;29.20
3067;DHT22;1544;48.834;9.194;2023-04-03T08:55:46;9.80;29.00
3067;DHT22;1544;48.834;9.194;2023-04-03T08:58:28;9.90;29.00
3067;DHT22;1544;48.834;9.194;2023-04-03T09:01:22;10.00;27.90
3067;DHT22;1544;48.834;9.194;2023-04-03T09:04:09;9.90;28.30
3067;DHT22;1544;48.834;9.194;2023-04-03T09:06:57;10.00;27.70
3067;DHT22;1544;48.834;9.194;2023-04-03T09:09:41;10.10;27.70
3067;DHT22;1544;48.834;9.194;2023-04-03T09:12:24;10.20;27.70
3067;DHT22;1544;48.834;9.194;2023-04-03T09:15:15;10.10;27.10
3067;DHT22;1544;48.834;9.194;2023-04-03T09:18:16;10.00;27.00
3067;DHT22;1544;48.834;9.194;2023-04-03T09:24:05;10.10;27.00
3067;DHT22;1544;48.834;9.194;2023-04-03T09:26:51;10.20;26.90
3067;DHT22;1544;48.834;9.194;2023-04-03T09:29:30;10.40;26.90
3067;DHT22;1544;48.834;9.194;2023-04-03T09:32:27;10.60;26.90
3067;DHT22;1544;48.834;9.194;2023-04-03T09:38:00;10.80;26.60
3067;DHT22;1544;48.834;9.194;2023-04-03T09:41:02;10.70;26.50
3067;DHT22;1544;48.834;9.194;2023-04-03T09:43:52;10.80;26.30
3067;DHT22;1544;48.834;9.194;2023-04-03T09:46:32;10.90;26.40
3067;DHT22;1544;48.834;9.194;2023-04-03T09:49:11;11.10;26.60
3067;DHT22;1544;48.834;9.194;2023-04-03T09:51:46;11.30;26.80
3067;DHT22;1544;48.834;9.194;2023-04-03T09:54:31;11.50;26.30
3067;DHT22;1544;48.834;9.194;2023-04-03T09:57:15;11.50;26.00
3067;DHT22;1544;48.834;9.194;2023-04-03T10:00:01;11.60;25.80
3067;DHT22;1544;48.834;9.194;2023-04-03T10:02:40;11.70;25.70
3067;DHT22;1544;48.834;9.194;2023-04-03T10:05:36;11.60;25.90
3067;DHT22;1544;48.834;9.194;2023-04-03T10:13:59;11.80;25.70
3067;DHT22;1544;48.834;9.194;2023-04-03T10:16:39;11.80;25.80
3067;DHT22;1544;48.834;9.194;2023-04-03T10:19:52;11.60;25.80
3067;DHT22;1544;48.834;9.194;2023-04-03T10:28:53;11.50;26.00
3067;DHT22;1544;48.834;9.194;2023-04-03T10:31:46;11.40;25.80
3067;DHT22;1544;48.834;9.194;2023-04-03T10:34:43;11.30;25.70
3067;DHT22;1544;48.834;9.194;2023-04-03T10:40:52;11.10;26.00
3067;DHT22;1544;48.834;9.194;2023-04-03T10:43:56;11.10;26.20
3067;DHT22;1544;48.834;9.194;2023-04-03T10:46:50;11.10;26.00
3067;DHT22;1544;48.834;9.194;2023-04-03T10:49:51;10.90;25.40
3067;DHT22;1544;48.834;9.194;2023-04-03T10:58:56;10.80;25.70
3067;DHT22;1544;48.834;9.194;2023-04-03T11:01:56;10.80;25.40
3067;DHT22;1544;48.834;9.194;2023-04-03T11:04:37;10.90;25.10
3067;DHT22;1544;48.834;9.194;2023-04-03T11:07:18;9.30;24.30
3067;DHT22;1544;48.834;9.194;2023-04-03T11:10:02;11.10;24.70
3067;DHT22;1544;48.834;9.194;2023-04-03T11:12:46;11.20;24.70
3067;DHT22;1544;48.834;9.194;2023-04-03T11:15:23;11.20;24.20
3067;DHT22;1544;48.834;9.194;2023-04-03T11:18:17;11.10;24.00
3067;DHT22;1544;48.834;9.194;2023-04-03T11:21:21;11.10;24.00
3067;DHT22;1544;48.834;9.194;2023-04-03T11:23:59;11.00;23.70
3067;DHT22;1544;48.834;9.194;2023-04-03T11:26:40;11.00;24.30
3067;DHT22;1544;48.834;9.194;2023-04-03T11:29:21;11.00;24.30
3067;DHT22;1544;48.834;9.194;2023-04-03T11:32:35;11.00;24.30
3067;DHT22;1544;48.834;9.194;2023-04-03T11:35:26;11.10;24.40
3067;DHT22;1544;48.834;9.194;2023-04-03T11:38:03;11.10;24.50
3067;DHT22;1544;48.834;9.194;2023-04-03T11:40:44;11.10;24.30
3067;DHT22;1544;48.834;9.194;2023-04-03T11:43:26;11.00;24.30
3067;DHT22;1544;48.834;9.194;2023-04-03T11:46:05;10.20;24.10
3067;DHT22;1544;48.834;9.194;2023-04-03T11:48:49;11.00;24.60
3067;DHT22;1544;48.834;9.194;2023-04-03T11:57:45;11.30;24.50
3067;DHT22;1544;48.834;9.194;2023-04-03T12:11:19;11.90;24.00
3067;DHT22;1544;48.834;9.194;2023-04-03T12:19:36;12.10;23.60
3067;DHT22;1544;48.834;9.194;2023-04-03T12:22:18;12.00;23.40
3067;DHT22;1544;48.834;9.194;2023-04-03T12:24:55;12.00;23.30
3067;DHT22;1544;48.834;9.194;2023-04-03T12:27:34;12.10;23.70
3067;DHT22;1544;48.834;9.194;2023-04-03T12:30:19;12.30;23.90
3067;DHT22;1544;48.834;9.194;2023-04-03T12:33:20;12.50;23.60
3067;DHT22;1544;48.834;9.194;2023-04-03T12:36:02;12.60;23.50
3067;DHT22;1544;48.834;9.194;2023-04-03T12:38:53;12.60;23.40
3067;DHT22;1544;48.834;9.194;2023-04-03T12:45:19;12.50;23.30
3067;DHT22;1544;48.834;9.194;2023-04-03T12:47:56;12.50;23.50
3067;DHT22;1544;48.834;9.194;2023-04-03T12:50:32;12.30;23.20
3067;DHT22;1544;48.834;9.194;2023-04-03T12:53:18;12.30;23.50
3067;DHT22;1544;48.834;9.194;2023-04-03T12:55:59;12.40;23.80
3067;DHT22;1544;48.834;9.194;2023-04-03T12:59:23;12.40;23.50
3067;DHT22;1544;48.834;9.194;2023-04-03T13:02:01;12.40;23.70
3067;DHT22;1544;48.834;9.194;2023-04-03T13:04:38;12.30;23.10
3067;DHT22;1544;48.834;9.194;2023-04-03T13:07:34;12.30;23.10
3067;DHT22;1544;48.834;9.194;2023-04-03T13:10:15;12.40;23.50
3067;DHT22;1544;48.834;9.194;2023-04-03T13:12:53;12.50;23.60
3067;DHT22;1544;48.834;9.194;2023-04-03T13:15:41;12.60;23.70
3067;DHT22;1544;48.834;9.194;2023-04-03T13:18:26;12.60;23.30
3067;DHT22;1544;48.834;9.194;2023-04-03T13:21:15;12.60;23.20
3067;DHT22;1544;48.834;9.194;2023-04-03T13:23:56;12.70;23.70
3067;DHT22;1544;48.834;9.194;2023-04-03T13:26:45;12.70;23.70
3067;DHT22;1544;48.834;9.194;2023-04-03T13:29:34;12.70;23.90
3067;DHT22;1544;48.834;9.194;2023-04-03T13:32:24;12.90;23.40
3067;DHT22;1544;48.834;9.194;2023-04-03T13:35:01;13.00;23.20
3067;DHT22;1544;48.834;9.194;2023-04-03T13:37:57;13.10;23.30
3067;DHT22;1544;48.834;9.194;2023-04-03T13:40:47;13.30;23.10
3067;DHT22;1544;48.834;9.194;2023-04-03T13:43:30;13.40;22.60
3067;DHT22;1544;48.834;9.194;2023-04-03T13:48:51;13.70;22.50
3067;DHT22;1544;48.834;9.194;2023-04-03T13:51:28;13.70;22.00
3067;DHT22;1544;48.834;9.194;2023-04-03T13:54:40;13.90;22.10
3067;DHT22;1544;48.834;9.194;2023-04-03T13:57:15;14.10;21.90
3067;DHT22;1544;48.834;9.194;2023-04-03T13:59:51;14.00;22.20
3067;DHT22;1544;48.834;9.194;2023-04-03T14:02:32;13.80;22.00
3067;DHT22;1544;48.834;9.194;2023-04-03T14:05:08;13.70;22.10
3067;DHT22;1544;48.834;9.194;2023-04-03T14:07:43;13.70;22.10
3067;DHT22;1544;48.834;9.194;2023-04-03T14:10:25;13.70;22.20
3067;DHT22;1544;48.834;9.194;2023-04-03T14:13:00;13.80;22.20
3067;DHT22;1544;48.834;9.194;2023-04-03T14:15:35;13.70;22.60
3067;DHT22;1544;48.834;9.194;2023-04-03T14:18:12;13.70;22.40
3067;DHT22;1544;48.834;9.194;2023-04-03T14:20:49;13.60;22.40
3067;DHT22;1544;48.834;9.194;2023-04-03T14:23:24;13.50;22.10
3067;DHT22;1544;48.834;9.194;2023-04-03T14:25:59;12.50;21.20
3067;DHT22;1544;48.834;9.194;2023-04-03T14:28:35;13.40;21.50
3067;DHT22;1544;48.834;9.194;2023-04-03T14:31:11;13.30;21.00
3067;DHT22;1544;48.834;9.194;2023-04-03T14:33:48;13.20;21.30
3067;DHT22;1544;48.834;9.194;2023-04-03T14:36:25;13.30;21.60
3067;DHT22;1544;48.834;9.194;2023-04-03T14:39:03;13.30;21.50
3067;DHT22;1544;48.834;9.194;2023-04-03T14:41:40;13.70;21.80
3067;DHT22;1544;48.834;9.194;2023-04-03T14:44:15;13.90;21.60
3067;DHT22;1544;48.834;9.194;2023-04-03T14:46:50;13.90;21.70
3067;DHT22;1544;48.834;9.194;2023-04-03T14:49:31;13.70;21.50
3067;DHT22;1544;48.834;9.194;2023-04-03T14:52:06;13.50;21.70
3067;DHT22;1544;48.834;9.194;2023-04-03T14:54:43;13.40;21.50
3067;DHT22;1544;48.834;9.194;2023-04-03T14:57:19;13.50;21.90
3067;DHT22;1544;48.834;9.194;2023-04-03T15:00:00;13.30;21.50
3067;DHT22;1544;48.834;9.194;2023-04-03T15:02:37;13.20;21.10
3067;DHT22;1544;48.834;9.194;2023-04-03T15:05:14;13.30;21.50
3067;DHT22;1544;48.834;9.194;2023-04-03T15:07:53;13.30;21.50
3067;DHT22;1544;48.834;9.194;2023-04-03T15:10:30;13.40;21.80
3067;DHT22;1544;48.834;9.194;2023-04-03T15:13:05;13.40;21.70
3067;DHT22;1544;48.834;9.194;2023-04-03T15:15:41;13.50;21.70
3067;DHT22;1544;48.834;9.194;2023-04-03T15:18:24;13.60;21.50
3067;DHT22;1544;48.834;9.194;2023-04-03T15:21:05;13.60;21.30
3067;DHT22;1544;48.834;9.194;2023-04-03T15:23:40;13.70;21.80
3067;DHT22;1544;48.834;9.194;2023-04-03T15:26:15;13.70;21.70
3067;DHT22;1544;48.834;9.194;2023-04-03T15:28:50;13.50;21.20
3067;DHT22;1544;48.834;9.194;2023-04-03T15:31:25;13.30;21.30
3067;DHT22;1544;48.834;9.194;2023-04-03T15:34:00;13.20;21.20
3067;DHT22;1544;48.834;9.194;2023-04-03T15:36:35;13.00;21.50
3067;DHT22;1544;48.834;9.194;2023-04-03T15:39:10;12.80;21.60
3067;DHT22;1544;48.834;9.194;2023-04-03T15:41:45;12.70;21.70
3067;DHT22;1544;48.834;9.194;2023-04-03T15:44:20;12.60;21.30
3067;DHT22;1544;48.834;9.194;2023-04-03T15:46:55;12.80;21.50
3067;DHT22;1544;48.834;9.194;2023-04-03T15:49:32;12.90;21.10
3067;DHT22;1544;48.834;9.194;2023-04-03T15:52:07;13.20;21.30
3067;DHT22;1544;48.834;9.194;2023-04-03T15:54:43;13.50;21.00
3067;DHT22;1544;48.834;9.194;2023-04-03T15:57:18;14.00;21.30
3067;DHT22;1544;48.834;9.194;2023-04-03T15:59:53;14.40;21.00
3067;DHT22;1544;48.834;9.194;2023-04-03T16:02:28;14.80;21.00
3067;DHT22;1544;48.834;9.194;2023-04-03T16:05:04;15.30;20.80
3067;DHT22;1544;48.834;9.194;2023-04-03T16:07:40;15.60;21.10
3067;DHT22;1544;48.834;9.194;2023-04-03T16:10:16;15.80;20.80
3067;DHT22;1544;48.834;9.194;2023-04-03T16:12:52;15.90;21.30
3067;DHT22;1544;48.834;9.194;2023-04-03T16:15:27;15.80;21.20
3067;DHT22;1544;48.834;9.194;2023-04-03T16:18:03;15.50;21.30
3067;DHT22;1544;48.834;9.194;2023-04-03T16:20:39;15.10;21.00
3067;DHT22;1544;48.834;9.194;2023-04-03T16:23:14;14.70;20.70
3067;DHT22;1544;48.834;9.194;2023-04-03T16:25:49;14.40;21.30
3067;DHT22;1544;48.834;9.194;2023-04-03T16:28:24;14.10;21.40
3067;DHT22;1544;48.834;9.194;2023-04-03T16:31:00;13.90;21.30
3067;DHT22;1544;48.834;9.194;2023-04-03T16:33:36;13.90;21.20
3067;DHT22;1544;48.834;9.194;2023-04-03T16:36:11;14.10;22.10
3067;DHT22;1544;48.834;9.194;2023-04-03T16:38:46;14.30;22.20
3067;DHT22;1544;48.834;9.194;2023-04-03T16:41:22;14.50;22.00
3067;DHT22;1544;48.834;9.194;2023-04-03T16:43:57;14.60;21.40
3067;DHT22;1544;48.834;9.194;2023-04-03T16:46:31;14.70;21.30
3067;DHT22;1544;48.834;9.194;2023-04-03T16:49:06;14.50;20.40
3067;DHT22;1544;48.834;9.194;2023-04-03T16:51:41;14.30;20.80
3067;DHT22;1544;48.834;9.194;2023-04-03T16:54:16;14.00;20.80
3067;DHT22;1544;48.834;9.194;2023-04-03T16:56:52;13.70;20.60
3067;DHT22;1544;48.834;9.194;2023-04-03T16:59:27;13.50;20.90
3067;DHT22;1544;48.834;9.194;2023-04-03T17:02:03;13.40;21.30
3067;DHT22;1544;48.834;9.194;2023-04-03T17:04:38;13.10;21.20
3067;DHT22;1544;48.834;9.194;2023-04-03T17:07:14;12.80;21.00
3067;DHT22;1544;48.834;9.194;2023-04-03T17:09:49;12.60;21.50
3067;DHT22;1544;48.834;9.194;2023-04-03T17:12:24;12.40;21.50
3067;DHT22;1544;48.834;9.194;2023-04-03T17:14:59;12.20;21.60
3067;DHT22;1544;48.834;9.194;2023-04-03T17:17:34;12.00;21.90
3067;DHT22;1544;48.834;9.194;2023-04-03T17:20:10;11.80;21.80
3067;DHT22;1544;48.834;9.194;2023-04-03T17:22:45;11.60;21.60
3067;DHT22;1544;48.834;9.194;2023-04-03T17:25:20;11.40;21.50
3067;DHT22;1544;48.834;9.194;2023-04-03T17:27:55;11.20;21.60
3067;DHT22;1544;48.834;9.194;2023-04-03T17:30:30;11.00;21.70
3067;DHT22;1544;48.834;9.194;2023-04-03T17:33:05;10.80;21.50
3067;DHT22;1544;48.834;9.194;2023-04-03T17:35:40;10.70;21.50
3067;DHT22;1544;48.834;9.194;2023-04-03T17:38:15;10.40;21.80
3067;DHT22;1544;48.834;9.194;2023-04-03T17:40:50;10.30;21.60
3067;DHT22;1544;48.834;9.194;2023-04-03T17:43:25;10.10;21.60
3067;DHT22;1544;48.834;9.194;2023-04-03T17:46:08;9.90;22.40
3067;DHT22;1544;48.834;9.194;2023-04-03T17:48:44;9.80;22.60
3067;DHT22;1544;48.834;9.194;2023-04-03T17:51:22;9.70;22.60
3067;DHT22;1544;48.834;9.194;2023-04-03T17:53:59;9.50;22.80
3067;DHT22;1544;48.834;9.194;2023-04-03T17:56:34;9.50;22.80
3067;DHT22;1544;48.834;9.194;2023-04-03T17:59:09;9.30;22.90
3067;DHT22;1544;48.834;9.194;2023-04-03T18:01:45;9.20;23.00
3067;DHT22;1544;48.834;9.194;2023-04-03T18:04:21;9.10;23.10
3067;DHT22;1544;48.834;9.194;2023-04-03T18:06:56;9.10;23.20
3067;DHT22;1544;48.834;9.194;2023-04-03T18:09:32;9.00;23.20
3067;DHT22;1544;48.834;9.194;2023-04-03T18:12:08;9.00;23.30
3067;DHT22;1544;48.834;9.194;2023-04-03T18:14:44;8.90;23.30
3067;DHT22;1544;48.834;9.194;2023-04-03T18:17:19;8.90;23.40
3067;DHT22;1544;48.834;9.194;2023-04-03T18:19:55;8.80;23.40
3067;DHT22;1544;48.834;9.194;2023-04-03T18:22:31;8.80;23.40
3067;DHT22;1544;48.834;9.194;2023-04-03T18:25:07;8.70;23.50
3067;DHT22;1544;48.834;9.194;2023-04-03T18:27:43;8.60;23.60
3067;DHT22;1544;48.834;9.194;2023-04-03T18:30:18;8.60;23.60